sensor_id;sensor_type;location;lat;lon;timestamp;pressure;altitude;pressure_sealevel;temperature;humidity
71770;BME280;66386;52.122;5.420;2023-11-21T00:02:17;101127.09;;;5.35;100.00
71770;BME280;66386;52.122;5.420;2023-11-21T00:04:43;101134.78;;;5.33;100.00
71770;BME280;66386;52.122;5.420;2023-11-21T00:07:10;101136.44;;;5.33;100.00
71770;BME280;66386;52.122;5.420;2023-11-21T00:09:36;101139.03;;;5.30;100.00
71770;BME280;66386;52.122;5.420;2023-11-21T00:12:03;101140.72;;;5.31;100.00
71770;BME280;66386;52.122;5.420;2023-11-21T00:14:30;101144.13;;;5.31;100.00
71770;BME280;66386;52.122;5.420;2023-11-21T00:16:56;101149.19;;;5.33;100.00
71770;BME280;66386;52.122;5.420;2023-11-21T00:19:23;101144.97;;;5.32;100.00
71770;BME280;66386;52.122;5.420;2023-11-21T00:21:49;101139.03;;;5.31;100.00
71770;BME280;66386;52.122;5.420;2023-11-21T00:24:16;101145.84;;;5.29;100.00
71770;BME280;66386;52.122;5.420;2023-11-21T00:26:43;101144.13;;;5.30;100.00
71770;BME280;66386;52.122;5.420;2023-11-21T00:29:10;101159.44;;;5.30;100.00
71770;BME280;66386;52.122;5.420;2023-11-21T00:31:37;101154.34;;;5.28;100.00
71770;BME280;66386;52.122;5.420;2023-11-21T00:34:05;101154.34;;;5.27;100.00
71770;BME280;66386;52.122;5.420;2023-11-21T00:36:31;101149.25;;;5.27;100.00
71770;BME280;66386;52.122;5.420;2023-11-21T00:38:58;101156.94;;;5.25;100.00
71770;BME280;66386;52.122;5.420;2023-11-21T00:41:25;101151.00;;;5.24;100.00
71770;BME280;66386;52.122;5.420;2023-11-21T00:43:54;101156.94;;;5.23;100.00
71770;BME280;66386;52.122;5.420;2023-11-21T00:46:21;101165.41;;;5.24;100.00
71770;BME280;66386;52.122;5.420;2023-11-21T00:48:48;101161.22;;;5.21;100.00
71770;BME280;66386;52.122;5.420;2023-11-21T00:51:14;101158.69;;;5.20;100.00
71770;BME280;66386;52.122;5.420;2023-11-21T00:53:41;101161.25;;;5.20;100.00
71770;BME280;66386;52.122;5.420;2023-11-21T00:56:07;101162.09;;;5.19;100.00
71770;BME280;66386;52.122;5.420;2023-11-21T00:58:35;101163.81;;;5.18;100.00
71770;BME280;66386;52.122;5.420;2023-11-21T01:01:01;101178.25;;;5.15;100.00
71770;BME280;66386;52.122;5.420;2023-11-21T01:07:10;101180.81;;;5.15;100.00
71770;BME280;66386;52.122;5.420;2023-11-21T01:09:36;101196.06;;;5.16;100.00
71770;BME280;66386;52.122;5.420;2023-11-21T01:12:03;101186.72;;;5.15;100.00
71770;BME280;66386;52.122;5.420;2023-11-21T01:14:30;101193.50;;;5.18;100.00
71770;BME280;66386;52.122;5.420;2023-11-21T01:16:56;101190.13;;;5.17;100.00
71770;BME280;66386;52.122;5.420;2023-11-21T01:19:23;101197.75;;;5.19;100.00
71770;BME280;66386;52.122;5.420;2023-11-21T01:21:50;101198.59;;;5.18;100.00
71770;BME280;66386;52.122;5.420;2023-11-21T01:24:16;101190.13;;;5.17;100.00
71770;BME280;66386;52.122;5.420;2023-11-21T01:26:43;101200.31;;;5.17;100.00
71770;BME280;66386;52.122;5.420;2023-11-21T01:29:09;101190.13;;;5.17;100.00
71770;BME280;66386;52.122;5.420;2023-11-21T01:31:36;101184.19;;;5.15;100.00
71770;BME280;66386;52.122;5.420;2023-11-21T01:34:03;101185.03;;;5.17;100.00
71770;BME280;66386;52.122;5.420;2023-11-21T01:36:30;101191.81;;;5.20;100.00
71770;BME280;66386;52.122;5.420;2023-11-21T01:39:00;101194.34;;;5.23;100.00
71770;BME280;66386;52.122;5.420;2023-11-21T01:41:27;101195.97;;;5.25;100.00
71770;BME280;66386;52.122;5.420;2023-11-21T01:43:55;101189.22;;;5.26;100.00
71770;BME280;66386;52.122;5.420;2023-11-21T01:46:22;101197.66;;;5.28;100.00
71770;BME280;66386;52.122;5.420;2023-11-21T01:48:50;101197.66;;;5.30;100.00
71770;BME280;66386;52.122;5.420;2023-11-21T01:51:17;101206.16;;;5.32;100.00
71770;BME280;66386;52.122;5.420;2023-11-21T01:53:45;101206.13;;;5.35;100.00
71770;BME280;66386;52.122;5.420;2023-11-21T01:56:13;101212.03;;;5.37;100.00
71770;BME280;66386;52.122;5.420;2023-11-21T01:58:40;101214.56;;;5.40;100.00
71770;BME280;66386;52.122;5.420;2023-11-21T02:01:06;101211.13;;;5.42;100.00
71770;BME280;66386;52.122;5.420;2023-11-21T02:03:33;101211.94;;;5.45;100.00
71770;BME280;66386;52.122;5.420;2023-11-21T02:06:01;101221.28;;;5.47;100.00
71770;BME280;66386;52.122;5.420;2023-11-21T02:08:27;101216.16;;;5.49;100.00
71770;BME280;66386;52.122;5.420;2023-11-21T02:10:54;101228.06;;;5.51;100.00
71770;BME280;66386;52.122;5.420;2023-11-21T02:13:20;101228.88;;;5.52;100.00
71770;BME280;66386;52.122;5.420;2023-11-21T02:15:47;101243.28;;;5.56;100.00
71770;BME280;66386;52.122;5.420;2023-11-21T02:18:16;101239.03;;;5.59;100.00
71770;BME280;66386;52.122;5.420;2023-11-21T02:20:44;101245.78;;;5.64;100.00
71770;BME280;66386;52.122;5.420;2023-11-21T02:23:10;101243.22;;;5.67;100.00
71770;BME280;66386;52.122;5.420;2023-11-21T02:25:37;101241.47;;;5.69;100.00
71770;BME280;66386;52.122;5.420;2023-11-21T02:28:04;101244.84;;;5.72;100.00
71770;BME280;66386;52.122;5.420;2023-11-21T02:30:31;101242.28;;;5.74;100.00
71770;BME280;66386;52.122;5.420;2023-11-21T02:33:01;101252.47;;;5.77;100.00
71770;BME280;66386;52.122;5.420;2023-11-21T02:35:28;101247.34;;;5.79;100.00
71770;BME280;66386;52.122;5.420;2023-11-21T02:37:57;101243.03;;;5.82;100.00
71770;BME280;66386;52.122;5.420;2023-11-21T02:40:24;101244.72;;;5.85;100.00
71770;BME280;66386;52.122;5.420;2023-11-21T02:42:52;101256.63;;;5.86;100.00
71770;BME280;66386;52.122;5.420;2023-11-21T02:45:20;101257.44;;;5.88;100.00
71770;BME280;66386;52.122;5.420;2023-11-21T02:47:48;101255.72;;;5.90;100.00
71770;BME280;66386;52.122;5.420;2023-11-21T02:50:16;101257.38;;;5.94;100.00
71770;BME280;66386;52.122;5.420;2023-11-21T02:52:45;101246.28;;;5.97;100.00
71770;BME280;66386;52.122;5.420;2023-11-21T02:55:12;101247.16;;;5.99;100.00
71770;BME280;66386;52.122;5.420;2023-11-21T02:57:38;101248.84;;;6.00;100.00
71770;BME280;66386;52.122;5.420;2023-11-21T03:00:05;101247.13;;;6.02;100.00
71770;BME280;66386;52.122;5.420;2023-11-21T03:02:34;101242.84;;;6.04;100.00
71770;BME280;66386;52.122;5.420;2023-11-21T03:05:06;101252.16;;;6.06;100.00
71770;BME280;66386;52.122;5.420;2023-11-21T03:07:36;101247.91;;;6.07;100.00
71770;BME280;66386;52.122;5.420;2023-11-21T03:10:04;101255.50;;;6.10;100.00
71770;BME280;66386;52.122;5.420;2023-11-21T03:12:30;101252.09;;;6.13;100.00
71770;BME280;66386;52.122;5.420;2023-11-21T03:14:57;101247.78;;;6.16;100.00
71770;BME280;66386;52.122;5.420;2023-11-21T03:17:23;101243.53;;;6.18;100.00
71770;BME280;66386;52.122;5.420;2023-11-21T03:19:50;101246.03;;;6.21;100.00
71770;BME280;66386;52.122;5.420;2023-11-21T03:22:18;101249.41;;;6.23;100.00
71770;BME280;66386;52.122;5.420;2023-11-21T03:24:45;101251.09;;;6.24;100.00
71770;BME280;66386;52.122;5.420;2023-11-21T03:27:12;101254.47;;;6.25;100.00
71770;BME280;66386;52.122;5.420;2023-11-21T03:29:38;101254.50;;;6.26;100.00
71770;BME280;66386;52.122;5.420;2023-11-21T03:32:05;101256.19;;;6.26;100.00
71770;BME280;66386;52.122;5.420;2023-11-21T03:34:33;101256.16;;;6.27;100.00
71770;BME280;66386;52.122;5.420;2023-11-21T03:37:00;101262.13;;;6.28;100.00
71770;BME280;66386;52.122;5.420;2023-11-21T03:39:26;101266.34;;;6.31;100.00
71770;BME280;66386;52.122;5.420;2023-11-21T03:41:53;101256.97;;;6.31;100.00
71770;BME280;66386;52.122;5.420;2023-11-21T03:44:20;101266.28;;;6.34;100.00
71770;BME280;66386;52.122;5.420;2023-11-21T03:46:46;101259.50;;;6.33;100.00
71770;BME280;66386;52.122;5.420;2023-11-21T03:49:13;101259.50;;;6.34;100.00
71770;BME280;66386;52.122;5.420;2023-11-21T03:51:39;101266.31;;;6.35;100.00
71770;BME280;66386;52.122;5.420;2023-11-21T03:54:06;101271.41;;;6.35;100.00
71770;BME280;66386;52.122;5.420;2023-11-21T03:56:32;101279.03;;;6.37;100.00
71770;BME280;66386;52.122;5.420;2023-11-21T03:58:59;101277.31;;;6.39;100.00
71770;BME280;66386;52.122;5.420;2023-11-21T04:01:25;101284.09;;;6.40;100.00
71770;BME280;66386;52.122;5.420;2023-11-21T04:03:52;101288.31;;;6.42;100.00
71770;BME280;66386;52.122;5.420;2023-11-21T04:06:18;101288.31;;;6.42;100.00
71770;BME280;66386;52.122;5.420;2023-11-21T04:08:45;101295.09;;;6.45;100.00
71770;BME280;66386;52.122;5.420;2023-11-21T04:11:12;101296.78;;;6.46;100.00
71770;BME280;66386;52.122;5.420;2023-11-21T04:13:39;101291.63;;;6.49;100.00
71770;BME280;66386;52.122;5.420;2023-11-21T04:16:08;101300.13;;;6.50;100.00
71770;BME280;66386;52.122;5.420;2023-11-21T04:18:38;101308.66;;;6.52;100.00
71770;BME280;66386;52.122;5.420;2023-11-21T04:21:05;101305.22;;;6.54;100.00
71770;BME280;66386;52.122;5.420;2023-11-21T04:23:32;101308.59;;;6.55;100.00
71770;BME280;66386;52.122;5.420;2023-11-21T04:25:59;101311.94;;;6.58;100.00
71770;BME280;66386;52.122;5.420;2023-11-21T04:28:25;101320.44;;;6.60;100.00
71770;BME280;66386;52.122;5.420;2023-11-21T04:30:52;101319.59;;;6.61;100.00
71770;BME280;66386;52.122;5.420;2023-11-21T04:33:18;101315.31;;;6.62;100.00
71770;BME280;66386;52.122;5.420;2023-11-21T04:35:45;101324.66;;;6.66;100.00
71770;BME280;66386;52.122;5.420;2023-11-21T04:38:12;101333.97;;;6.67;100.00
71770;BME280;66386;52.122;5.420;2023-11-21T04:40:39;101327.19;;;6.68;100.00
71770;BME280;66386;52.122;5.420;2023-11-21T04:43:05;101339.91;;;6.71;100.00
71770;BME280;66386;52.122;5.420;2023-11-21T04:45:32;101341.59;;;6.72;100.00
71770;BME280;66386;52.122;5.420;2023-11-21T04:47:58;101337.31;;;6.72;100.00
71770;BME280;66386;52.122;5.420;2023-11-21T04:50:25;101345.81;;;6.73;100.00
71770;BME280;66386;52.122;5.420;2023-11-21T04:52:53;101343.28;;;6.73;100.00
71770;BME280;66386;52.122;5.420;2023-11-21T04:55:20;101345.78;;;6.76;100.00
71770;BME280;66386;52.122;5.420;2023-11-21T04:57:47;101340.66;;;6.76;100.00
71770;BME280;66386;52.122;5.420;2023-11-21T05:00:14;101344.91;;;6.78;100.00
71770;BME280;66386;52.122;5.420;2023-11-21T05:02:42;101339.78;;;6.80;100.00
71770;BME280;66386;52.122;5.420;2023-11-21T05:05:10;101345.72;;;6.82;100.00
71770;BME280;66386;52.122;5.420;2023-11-21T05:07:39;101351.66;;;6.82;100.00
71770;BME280;66386;52.122;5.420;2023-11-21T05:10:06;101349.13;;;6.82;100.00
71770;BME280;66386;52.122;5.420;2023-11-21T05:12:35;101355.06;;;6.83;100.00
71770;BME280;66386;52.122;5.420;2023-11-21T05:15:04;101355.03;;;6.85;100.00
71770;BME280;66386;52.122;5.420;2023-11-21T05:17:33;101364.38;;;6.87;100.00
71770;BME280;66386;52.122;5.420;2023-11-21T05:20:01;101361.78;;;6.90;100.00
71770;BME280;66386;52.122;5.420;2023-11-21T05:22:34;101371.13;;;6.93;100.00
71770;BME280;66386;52.122;5.420;2023-11-21T05:25:02;101375.38;;;6.94;100.00
71770;BME280;66386;52.122;5.420;2023-11-21T05:27:34;101365.13;;;6.95;100.00
71770;BME280;66386;52.122;5.420;2023-11-21T05:30:04;101371.94;;;6.98;100.00
71770;BME280;66386;52.122;5.420;2023-11-21T05:32:34;101377.84;;;7.00;100.00
71770;BME280;66386;52.122;5.420;2023-11-21T05:35:01;101375.28;;;7.02;100.00
71770;BME280;66386;52.122;5.420;2023-11-21T05:37:28;101379.53;;;7.03;100.00
71770;BME280;66386;52.122;5.420;2023-11-21T05:39:55;101378.63;;;7.04;100.00
71770;BME280;66386;52.122;5.420;2023-11-21T05:42:23;101377.78;;;7.05;100.00
71770;BME280;66386;52.122;5.420;2023-11-21T05:44:50;101386.28;;;7.07;100.00
71770;BME280;66386;52.122;5.420;2023-11-21T05:47:16;101394.78;;;7.09;100.00
71770;BME280;66386;52.122;5.420;2023-11-21T05:49:44;101396.47;;;7.10;100.00
71770;BME280;66386;52.122;5.420;2023-11-21T05:52:11;101395.59;;;7.11;100.00
71770;BME280;66386;52.122;5.420;2023-11-21T05:54:38;101397.31;;;7.10;100.00
71770;BME280;66386;52.122;5.420;2023-11-21T05:57:04;101403.25;;;7.11;100.00
71770;BME280;66386;52.122;5.420;2023-11-21T05:59:31;101399.84;;;7.12;100.00
71770;BME280;66386;52.122;5.420;2023-11-21T06:01:57;101410.91;;;7.12;100.00
71770;BME280;66386;52.122;5.420;2023-11-21T06:04:25;101410.03;;;7.13;100.00
71770;BME280;66386;52.122;5.420;2023-11-21T06:06:52;101411.72;;;7.16;100.00
71770;BME280;66386;52.122;5.420;2023-11-21T06:09:21;101407.41;;;7.20;100.00
71770;BME280;66386;52.122;5.420;2023-11-21T06:11:48;101418.50;;;7.19;100.00
71770;BME280;66386;52.122;5.420;2023-11-21T06:14:15;101423.59;;;7.20;100.00
71770;BME280;66386;52.122;5.420;2023-11-21T06:16:44;101428.69;;;7.22;100.00
71770;BME280;66386;52.122;5.420;2023-11-21T06:19:11;101426.13;;;7.23;100.00
71770;BME280;66386;52.122;5.420;2023-11-21T06:21:38;101431.19;;;7.26;100.00
71770;BME280;66386;52.122;5.420;2023-11-21T06:24:05;101441.38;;;7.29;100.00
71770;BME280;66386;52.122;5.420;2023-11-21T06:26:32;101441.34;;;7.31;100.00
71770;BME280;66386;52.122;5.420;2023-11-21T06:28:58;101436.19;;;7.32;100.00
71770;BME280;66386;52.122;5.420;2023-11-21T06:31:25;101443.00;;;7.35;100.00
71770;BME280;66386;52.122;5.420;2023-11-21T06:33:51;101436.97;;;7.39;100.00
71770;BME280;66386;52.122;5.420;2023-11-21T06:36:19;101442.06;;;7.41;100.00
71770;BME280;66386;52.122;5.420;2023-11-21T06:38:45;101443.78;;;7.42;100.00
71770;BME280;66386;52.122;5.420;2023-11-21T06:41:12;101448.00;;;7.43;100.00
71770;BME280;66386;52.122;5.420;2023-11-21T06:43:42;101448.00;;;7.43;100.00
71770;BME280;66386;52.122;5.420;2023-11-21T06:46:13;101451.41;;;7.45;100.00
71770;BME280;66386;52.122;5.420;2023-11-21T06:48:43;101453.03;;;7.49;100.00
71770;BME280;66386;52.122;5.420;2023-11-21T06:51:09;101454.72;;;7.50;100.00
71770;BME280;66386;52.122;5.420;2023-11-21T06:53:37;101462.34;;;7.53;100.00
71770;BME280;66386;52.122;5.420;2023-11-21T06:56:05;101458.94;;;7.54;100.00
71770;BME280;66386;52.122;5.420;2023-11-21T06:58:41;101470.00;;;7.55;100.00
71770;BME280;66386;52.122;5.420;2023-11-21T07:01:07;101464.00;;;7.57;100.00
71770;BME280;66386;52.122;5.420;2023-11-21T07:03:34;101464.81;;;7.59;100.00
71770;BME280;66386;52.122;5.420;2023-11-21T07:06:01;101474.19;;;7.60;100.00
71770;BME280;66386;52.122;5.420;2023-11-21T07:08:28;101483.50;;;7.64;100.00
71770;BME280;66386;52.122;5.420;2023-11-21T07:10:54;101488.59;;;7.67;100.00
71770;BME280;66386;52.122;5.420;2023-11-21T07:13:20;101486.00;;;7.69;100.00
71770;BME280;66386;52.122;5.420;2023-11-21T07:15:49;101498.72;;;7.74;100.00
71770;BME280;66386;52.122;5.420;2023-11-21T07:18:15;101498.66;;;7.77;100.00
71770;BME280;66386;52.122;5.420;2023-11-21T07:20:42;101502.06;;;7.79;100.00
71770;BME280;66386;52.122;5.420;2023-11-21T07:23:08;101502.00;;;7.83;100.00
71770;BME280;66386;52.122;5.420;2023-11-21T07:25:35;101507.94;;;7.87;100.00
71770;BME280;66386;52.122;5.420;2023-11-21T07:28:01;101507.88;;;7.92;100.00
71770;BME280;66386;52.122;5.420;2023-11-21T07:30:28;101517.19;;;7.96;100.00
71770;BME280;66386;52.122;5.420;2023-11-21T07:32:54;101516.28;;;7.98;100.00
71770;BME280;66386;52.122;5.420;2023-11-21T07:35:21;101520.50;;;8.02;100.00
71770;BME280;66386;52.122;5.420;2023-11-21T07:37:48;101521.31;;;8.04;100.00
71770;BME280;66386;52.122;5.420;2023-11-21T07:40:15;101516.16;;;8.08;100.00
71770;BME280;66386;52.122;5.420;2023-11-21T07:42:43;101522.06;;;8.11;100.00
71770;BME280;66386;52.122;5.420;2023-11-21T07:45:10;101528.03;;;8.13;100.00
71770;BME280;66386;52.122;5.420;2023-11-21T07:47:36;101528.00;;;8.15;100.00
71770;BME280;66386;52.122;5.420;2023-11-21T07:50:03;101527.13;;;8.14;100.00
71770;BME280;66386;52.122;5.420;2023-11-21T07:52:30;101535.66;;;8.16;100.00
71770;BME280;66386;52.122;5.420;2023-11-21T07:54:57;101548.44;;;8.18;100.00
71770;BME280;66386;52.122;5.420;2023-11-21T07:57:23;101551.78;;;8.21;100.00
71770;BME280;66386;52.122;5.420;2023-11-21T07:59:50;101551.72;;;8.25;100.00
71770;BME280;66386;52.122;5.420;2023-11-21T08:02:20;101550.78;;;8.30;100.00
71770;BME280;66386;52.122;5.420;2023-11-21T08:04:46;101551.63;;;8.32;100.00
71770;BME280;66386;52.122;5.420;2023-11-21T08:07:17;101560.91;;;8.38;100.00
71770;BME280;66386;52.122;5.420;2023-11-21T08:09:44;101568.53;;;8.43;100.00
71770;BME280;66386;52.122;5.420;2023-11-21T08:12:10;101571.06;;;8.46;100.00
71770;BME280;66386;52.122;5.420;2023-11-21T08:14:37;101574.38;;;8.51;100.00
71770;BME280;66386;52.122;5.420;2023-11-21T08:17:05;101587.13;;;8.55;100.00
71770;BME280;66386;52.122;5.420;2023-11-21T08:19:33;101595.63;;;8.59;100.00
71770;BME280;66386;52.122;5.420;2023-11-21T08:21:59;101599.81;;;8.63;100.00
71770;BME280;66386;52.122;5.420;2023-11-21T08:24:26;101606.59;;;8.67;100.00
71770;BME280;66386;52.122;5.420;2023-11-21T08:26:54;101604.84;;;8.69;100.00
71770;BME280;66386;52.122;5.420;2023-11-21T08:29:20;101607.34;;;8.72;100.00
71770;BME280;66386;52.122;5.420;2023-11-21T08:31:47;101601.34;;;8.75;100.00
71770;BME280;66386;52.122;5.420;2023-11-21T08:34:14;101608.97;;;8.78;100.00
71770;BME280;66386;52.122;5.420;2023-11-21T08:36:42;101625.16;;;8.80;100.00
71770;BME280;66386;52.122;5.420;2023-11-21T08:39:09;101631.19;;;8.79;100.00
71770;BME280;66386;52.122;5.420;2023-11-21T08:41:39;101633.69;;;8.82;100.00
71770;BME280;66386;52.122;5.420;2023-11-21T08:44:06;101637.06;;;8.84;100.00
71770;BME280;66386;52.122;5.420;2023-11-21T08:46:33;101639.56;;;8.87;100.00
71770;BME280;66386;52.122;5.420;2023-11-21T08:49:01;101645.53;;;8.89;100.00
71770;BME280;66386;52.122;5.420;2023-11-21T08:51:27;101646.31;;;8.93;100.00
71770;BME280;66386;52.122;5.420;2023-11-21T08:53:54;101647.94;;;8.97;100.00
71770;BME280;66386;52.122;5.420;2023-11-21T08:56:21;101646.19;;;8.99;100.00
71770;BME280;66386;52.122;5.420;2023-11-21T08:58:47;101653.03;;;9.00;100.00
71770;BME280;66386;52.122;5.420;2023-11-21T09:01:14;101647.88;;;9.02;100.00
71770;BME280;66386;52.122;5.420;2023-11-21T09:03:40;101646.94;;;9.06;100.00
71770;BME280;66386;52.122;5.420;2023-11-21T09:06:07;101642.53;;;9.14;100.00
71770;BME280;66386;52.122;5.420;2023-11-21T09:08:35;101651.75;;;9.24;100.00
71770;BME280;66386;52.122;5.420;2023-11-21T09:11:02;101669.50;;;9.35;100.00
71770;BME280;66386;52.122;5.420;2023-11-21T09:13:29;101677.09;;;9.41;100.00
71770;BME280;66386;52.122;5.420;2023-11-21T09:15:56;101685.59;;;9.45;100.00
71770;BME280;66386;52.122;5.420;2023-11-21T09:18:22;101685.59;;;9.45;100.00
71770;BME280;66386;52.122;5.420;2023-11-21T09:20:49;101691.59;;;9.44;100.00
71770;BME280;66386;52.122;5.420;2023-11-21T09:23:15;101691.66;;;9.41;100.00
71770;BME280;66386;52.122;5.420;2023-11-21T09:25:42;101688.25;;;9.40;100.00
71770;BME280;66386;52.122;5.420;2023-11-21T09:28:12;101688.25;;;9.40;100.00
71770;BME280;66386;52.122;5.420;2023-11-21T09:30:39;101694.25;;;9.39;100.00
71770;BME280;66386;52.122;5.420;2023-11-21T09:33:05;101695.97;;;9.37;100.00
71770;BME280;66386;52.122;5.420;2023-11-21T09:35:33;101702.81;;;9.38;100.00
71770;BME280;66386;52.122;5.420;2023-11-21T09:37:59;101717.34;;;9.39;100.00
71770;BME280;66386;52.122;5.420;2023-11-21T09:40:28;101725.03;;;9.39;100.00
71770;BME280;66386;52.122;5.420;2023-11-21T09:42:55;101731.03;;;9.38;100.00
71770;BME280;66386;52.122;5.420;2023-11-21T09:45:32;101729.31;;;9.37;100.00
71770;BME280;66386;52.122;5.420;2023-11-21T09:48:01;101738.78;;;9.35;100.00
71770;BME280;66386;52.122;5.420;2023-11-21T09:50:28;101745.63;;;9.35;100.00
71770;BME280;66386;52.122;5.420;2023-11-21T09:52:58;101747.41;;;9.30;100.00
71770;BME280;66386;52.122;5.420;2023-11-21T09:55:29;101747.41;;;9.30;100.00
71770;BME280;66386;52.122;5.420;2023-11-21T09:57:56;101751.75;;;9.28;100.00
71770;BME280;66386;52.122;5.420;2023-11-21T10:00:23;101748.34;;;9.25;100.00
71770;BME280;66386;52.122;5.420;2023-11-21T10:02:50;101753.50;;;9.24;100.00
71770;BME280;66386;52.122;5.420;2023-11-21T10:05:19;101749.22;;;9.26;100.00
71770;BME280;66386;52.122;5.420;2023-11-21T10:07:46;101757.72;;;9.26;100.00
71770;BME280;66386;52.122;5.420;2023-11-21T10:10:15;101760.34;;;9.23;100.00
71770;BME280;66386;52.122;5.420;2023-11-21T10:12:49;101752.69;;;9.22;100.00
71770;BME280;66386;52.122;5.420;2023-11-21T10:15:16;101762.09;;;9.23;100.00
71770;BME280;66386;52.122;5.420;2023-11-21T10:17:44;101771.50;;;9.21;100.00
71770;BME280;66386;52.122;5.420;2023-11-21T10:20:11;101775.78;;;9.22;100.00
71770;BME280;66386;52.122;5.420;2023-11-21T10:22:43;101780.00;;;9.24;100.00
71770;BME280;66386;52.122;5.420;2023-11-21T10:25:10;101785.09;;;9.28;100.00
71770;BME280;66386;52.122;5.420;2023-11-21T10:27:37;101789.28;;;9.33;100.00
71770;BME280;66386;52.122;5.420;2023-11-21T10:30:06;101790.03;;;9.38;100.00
71770;BME280;66386;52.122;5.420;2023-11-21T10:32:32;101799.41;;;9.41;100.00
71770;BME280;66386;52.122;5.420;2023-11-21T10:35:00;101795.13;;;9.41;100.00
71770;BME280;66386;52.122;5.420;2023-11-21T10:37:33;101803.69;;;9.42;100.00
71770;BME280;66386;52.122;5.420;2023-11-21T10:39:59;101813.94;;;9.42;100.00
71770;BME280;66386;52.122;5.420;2023-11-21T10:42:26;101811.44;;;9.39;100.00
71770;BME280;66386;52.122;5.420;2023-11-21T10:44:54;101827.72;;;9.35;100.00
71770;BME280;66386;52.122;5.420;2023-11-21T10:47:21;101818.41;;;9.29;100.00
71770;BME280;66386;52.122;5.420;2023-11-21T10:49:49;101839.81;;;9.26;100.00
71770;BME280;66386;52.122;5.420;2023-11-21T10:52:19;101844.16;;;9.23;100.00
71770;BME280;66386;52.122;5.420;2023-11-21T10:54:45;101851.88;;;9.20;100.00
71770;BME280;66386;52.122;5.420;2023-11-21T10:57:17;101845.94;;;9.18;100.00
71770;BME280;66386;52.122;5.420;2023-11-21T10:59:47;101853.63;;;9.18;100.00
71770;BME280;66386;52.122;5.420;2023-11-21T11:02:26;101855.38;;;9.17;100.00
71770;BME280;66386;52.122;5.420;2023-11-21T11:04:59;101857.00;;;9.20;100.00
71770;BME280;66386;52.122;5.420;2023-11-21T11:07:27;101857.88;;;9.20;100.00
71770;BME280;66386;52.122;5.420;2023-11-21T11:09:54;101859.56;;;9.20;100.00
71770;BME280;66386;52.122;5.420;2023-11-21T11:12:21;101860.38;;;9.25;100.00
71770;BME280;66386;52.122;5.420;2023-11-21T11:14:51;101846.69;;;9.26;100.00
71770;BME280;66386;52.122;5.420;2023-11-21T11:17:19;101855.16;;;9.30;100.00
71770;BME280;66386;52.122;5.420;2023-11-21T11:19:47;101856.03;;;9.29;100.00
71770;BME280;66386;52.122;5.420;2023-11-21T11:22:37;101860.28;;;9.30;100.00
71770;BME280;66386;52.122;5.420;2023-11-21T11:25:27;101859.50;;;9.26;100.00
71770;BME280;66386;52.122;5.420;2023-11-21T11:28:04;101861.25;;;9.22;100.00
71770;BME280;66386;52.122;5.420;2023-11-21T11:33:41;101868.91;;;9.25;100.00
71770;BME280;66386;52.122;5.420;2023-11-21T11:36:36;101874.84;;;9.29;100.00
71770;BME280;66386;52.122;5.420;2023-11-21T11:39:29;101876.53;;;9.32;100.00
71770;BME280;66386;52.122;5.420;2023-11-21T11:41:58;101870.44;;;9.39;100.00
71770;BME280;66386;52.122;5.420;2023-11-21T11:47:35;101877.16;;;9.44;100.00
71770;BME280;66386;52.122;5.420;2023-11-21T11:52:44;101884.97;;;9.38;100.00
71770;BME280;66386;52.122;5.420;2023-11-21T11:55:16;101895.25;;;9.37;100.00
71770;BME280;66386;52.122;5.420;2023-11-21T11:57:51;101896.94;;;9.39;100.00
71770;BME280;66386;52.122;5.420;2023-11-21T12:00:19;101888.38;;;9.40;100.00
71770;BME280;66386;52.122;5.420;2023-11-21T12:02:53;101897.72;;;9.43;100.00
71770;BME280;66386;52.122;5.420;2023-11-21T12:05:21;101902.88;;;9.41;100.00
71770;BME280;66386;52.122;5.420;2023-11-21T12:10:21;101910.63;;;9.38;100.00
71770;BME280;66386;52.122;5.420;2023-11-21T12:12:53;101913.13;;;9.41;100.00
71770;BME280;66386;52.122;5.420;2023-11-21T12:15:20;101920.84;;;9.41;100.00
71770;BME280;66386;52.122;5.420;2023-11-21T12:17:48;101919.97;;;9.42;100.00
71770;BME280;66386;52.122;5.420;2023-11-21T12:20:18;101919.16;;;9.42;100.00
71770;BME280;66386;52.122;5.420;2023-11-21T12:22:56;101927.72;;;9.39;100.00
71770;BME280;66386;52.122;5.420;2023-11-21T12:25:27;101927.66;;;9.44;100.00
71770;BME280;66386;52.122;5.420;2023-11-21T12:27:55;101925.94;;;9.44;100.00
71770;BME280;66386;52.122;5.420;2023-11-21T12:30:24;101931.94;;;9.45;100.00
71770;BME280;66386;52.122;5.420;2023-11-21T12:32:55;101925.09;;;9.44;100.00
71770;BME280;66386;52.122;5.420;2023-11-21T12:35:24;101927.69;;;9.42;100.00
71770;BME280;66386;52.122;5.420;2023-11-21T12:37:52;101923.44;;;9.40;100.00
71770;BME280;66386;52.122;5.420;2023-11-21T12:40:20;101919.16;;;9.40;100.00
71770;BME280;66386;52.122;5.420;2023-11-21T12:42:52;101925.13;;;9.41;100.00
71770;BME280;66386;52.122;5.420;2023-11-21T12:45:24;101938.88;;;9.37;100.00
71770;BME280;66386;52.122;5.420;2023-11-21T12:48:01;101944.00;;;9.37;100.00
71770;BME280;66386;52.122;5.420;2023-11-21T12:50:34;101944.88;;;9.34;100.00
71770;BME280;66386;52.122;5.420;2023-11-21T12:53:07;101947.47;;;9.33;100.00
71770;BME280;66386;52.122;5.420;2023-11-21T12:55:43;101953.50;;;9.29;100.00
71770;BME280;66386;52.122;5.420;2023-11-21T12:58:16;101962.88;;;9.31;100.00
71770;BME280;66386;52.122;5.420;2023-11-21T13:00:45;101961.19;;;9.32;100.00
71770;BME280;66386;52.122;5.420;2023-11-21T13:03:13;101959.47;;;9.32;100.00
71770;BME280;66386;52.122;5.420;2023-11-21T13:05:46;101968.81;;;9.36;100.00
71770;BME280;66386;52.122;5.420;2023-11-21T13:08:14;101961.91;;;9.41;100.00
71770;BME280;66386;52.122;5.420;2023-11-21T13:10:49;101966.97;;;9.46;100.00